sensor_id;sensor_type;location;lat;lon;timestamp;P1;durP1;ratioP1;P2;durP2;ratioP2
15488;SDS011;7846;48.830;9.116;2023-05-07T00:01:17;4.37;;;3.97;;
15488;SDS011;7846;48.830;9.116;2023-05-07T00:03:43;4.63;;;4.20;;
15488;SDS011;7846;48.830;9.116;2023-05-07T00:06:09;6.27;;;4.40;;
15488;SDS011;7846;48.830;9.116;2023-05-07T00:08:35;5.57;;;4.40;;
15488;SDS011;7846;48.830;9.116;2023-05-07T00:11:01;5.97;;;4.60;;
15488;SDS011;7846;48.830;9.116;2023-05-07T00:13:27;4.50;;;4.10;;
15488;SDS011;7846;48.830;9.116;2023-05-07T00:16:00;4.50;;;4.10;;
15488;SDS011;7846;48.830;9.116;2023-05-07T00:18:28;4.80;;;4.00;;
15488;SDS011;7846;48.830;9.116;2023-05-07T00:20:54;5.70;;;4.23;;
15488;SDS011;7846;48.830;9.116;2023-05-07T00:23:19;4.73;;;4.30;;
15488;SDS011;7846;48.830;9.116;2023-05-07T00:25:44;5.37;;;3.90;;
15488;SDS011;7846;48.830;9.116;2023-05-07T00:28:10;6.07;;;4.37;;
15488;SDS011;7846;48.830;9.116;2023-05-07T00:30:35;5.33;;;4.37;;
15488;SDS011;7846;48.830;9.116;2023-05-07T00:33:01;4.67;;;4.17;;
15488;SDS011;7846;48.830;9.116;2023-05-07T00:35:28;5.07;;;4.40;;
15488;SDS011;7846;48.830;9.116;2023-05-07T00:37:53;6.03;;;4.20;;
15488;SDS011;7846;48.830;9.116;2023-05-07T00:40:19;4.87;;;4.20;;
15488;SDS011;7846;48.830;9.116;2023-05-07T00:42:47;4.40;;;4.00;;
15488;SDS011;7846;48.830;9.116;2023-05-07T00:45:14;4.50;;;4.10;;
15488;SDS011;7846;48.830;9.116;2023-05-07T00:47:40;3.90;;;3.60;;
15488;SDS011;7846;48.830;9.116;2023-05-07T00:50:05;4.33;;;3.97;;
15488;SDS011;7846;48.830;9.116;2023-05-07T00:52:33;4.10;;;3.70;;
15488;SDS011;7846;48.830;9.116;2023-05-07T00:54:59;4.67;;;4.20;;
15488;SDS011;7846;48.830;9.116;2023-05-07T00:57:33;4.30;;;3.90;;
15488;SDS011;7846;48.830;9.116;2023-05-07T01:00:04;5.37;;;4.30;;
15488;SDS011;7846;48.830;9.116;2023-05-07T01:02:30;4.70;;;4.20;;
15488;SDS011;7846;48.830;9.116;2023-05-07T01:04:56;4.97;;;4.30;;
15488;SDS011;7846;48.830;9.116;2023-05-07T01:07:22;4.83;;;4.33;;
15488;SDS011;7846;48.830;9.116;2023-05-07T01:09:48;4.90;;;4.50;;
15488;SDS011;7846;48.830;9.116;2023-05-07T01:12:14;5.27;;;4.10;;
15488;SDS011;7846;48.830;9.116;2023-05-07T01:14:40;4.83;;;4.33;;
15488;SDS011;7846;48.830;9.116;2023-05-07T01:17:06;6.03;;;4.37;;
15488;SDS011;7846;48.830;9.116;2023-05-07T01:19:33;5.07;;;4.40;;
15488;SDS011;7846;48.830;9.116;2023-05-07T01:22:01;4.97;;;4.50;;
15488;SDS011;7846;48.830;9.116;2023-05-07T01:24:29;5.07;;;4.43;;
15488;SDS011;7846;48.830;9.116;2023-05-07T01:26:56;4.87;;;4.37;;
15488;SDS011;7846;48.830;9.116;2023-05-07T01:29:21;5.23;;;4.00;;
15488;SDS011;7846;48.830;9.116;2023-05-07T01:31:46;4.57;;;4.17;;
15488;SDS011;7846;48.830;9.116;2023-05-07T01:34:12;5.17;;;4.40;;
15488;SDS011;7846;48.830;9.116;2023-05-07T01:36:40;4.70;;;4.30;;
15488;SDS011;7846;48.830;9.116;2023-05-07T01:39:10;4.73;;;4.33;;
15488;SDS011;7846;48.830;9.116;2023-05-07T01:41:37;4.80;;;4.30;;
15488;SDS011;7846;48.830;9.116;2023-05-07T01:44:03;4.90;;;4.50;;
15488;SDS011;7846;48.830;9.116;2023-05-07T01:46:30;5.63;;;4.20;;
15488;SDS011;7846;48.830;9.116;2023-05-07T01:48:57;4.57;;;4.10;;
15488;SDS011;7846;48.830;9.116;2023-05-07T01:51:22;5.10;;;4.40;;
15488;SDS011;7846;48.830;9.116;2023-05-07T01:53:47;4.83;;;4.43;;
15488;SDS011;7846;48.830;9.116;2023-05-07T01:56:16;5.10;;;4.60;;
15488;SDS011;7846;48.830;9.116;2023-05-07T01:58:42;4.90;;;4.50;;
15488;SDS011;7846;48.830;9.116;2023-05-07T02:01:10;6.60;;;4.40;;
15488;SDS011;7846;48.830;9.116;2023-05-07T02:03:36;5.07;;;4.33;;
15488;SDS011;7846;48.830;9.116;2023-05-07T02:06:01;5.20;;;4.70;;
15488;SDS011;7846;48.830;9.116;2023-05-07T02:08:27;4.97;;;4.50;;
15488;SDS011;7846;48.830;9.116;2023-05-07T02:10:55;5.17;;;4.50;;
15488;SDS011;7846;48.830;9.116;2023-05-07T02:13:22;6.13;;;4.80;;
15488;SDS011;7846;48.830;9.116;2023-05-07T02:15:49;7.70;;;4.40;;
15488;SDS011;7846;48.830;9.116;2023-05-07T02:18:16;5.00;;;4.50;;
15488;SDS011;7846;48.830;9.116;2023-05-07T02:20:42;5.03;;;4.53;;
15488;SDS011;7846;48.830;9.116;2023-05-07T02:23:10;7.37;;;4.40;;
15488;SDS011;7846;48.830;9.116;2023-05-07T02:25:36;4.83;;;4.33;;
15488;SDS011;7846;48.830;9.116;2023-05-07T02:28:02;5.33;;;4.47;;
15488;SDS011;7846;48.830;9.116;2023-05-07T02:30:28;4.93;;;4.17;;
15488;SDS011;7846;48.830;9.116;2023-05-07T02:32:53;4.83;;;4.43;;
15488;SDS011;7846;48.830;9.116;2023-05-07T02:35:19;4.97;;;4.47;;
15488;SDS011;7846;48.830;9.116;2023-05-07T02:37:44;6.03;;;4.70;;
15488;SDS011;7846;48.830;9.116;2023-05-07T02:40:12;5.10;;;4.60;;
15488;SDS011;7846;48.830;9.116;2023-05-07T02:42:38;5.13;;;4.63;;
15488;SDS011;7846;48.830;9.116;2023-05-07T02:45:04;5.10;;;4.60;;
15488;SDS011;7846;48.830;9.116;2023-05-07T02:47:30;5.13;;;4.63;;
15488;SDS011;7846;48.830;9.116;2023-05-07T02:49:55;5.47;;;4.50;;
15488;SDS011;7846;48.830;9.116;2023-05-07T02:52:22;5.83;;;4.10;;
15488;SDS011;7846;48.830;9.116;2023-05-07T02:54:47;4.90;;;4.37;;
15488;SDS011;7846;48.830;9.116;2023-05-07T02:57:12;5.83;;;4.90;;
15488;SDS011;7846;48.830;9.116;2023-05-07T02:59:38;4.60;;;4.20;;
15488;SDS011;7846;48.830;9.116;2023-05-07T03:02:03;4.70;;;4.30;;
15488;SDS011;7846;48.830;9.116;2023-05-07T03:04:29;4.83;;;4.40;;
15488;SDS011;7846;48.830;9.116;2023-05-07T03:06:55;5.10;;;4.63;;
15488;SDS011;7846;48.830;9.116;2023-05-07T03:09:20;4.50;;;4.10;;
15488;SDS011;7846;48.830;9.116;2023-05-07T03:11:45;5.27;;;4.77;;
15488;SDS011;7846;48.830;9.116;2023-05-07T03:14:12;4.80;;;4.40;;
15488;SDS011;7846;48.830;9.116;2023-05-07T03:16:39;5.20;;;4.80;;
15488;SDS011;7846;48.830;9.116;2023-05-07T03:19:05;5.70;;;4.80;;
15488;SDS011;7846;48.830;9.116;2023-05-07T03:21:30;6.37;;;4.67;;
15488;SDS011;7846;48.830;9.116;2023-05-07T03:23:58;4.87;;;4.30;;
15488;SDS011;7846;48.830;9.116;2023-05-07T03:26:24;5.20;;;4.70;;
15488;SDS011;7846;48.830;9.116;2023-05-07T03:28:51;4.70;;;4.17;;
15488;SDS011;7846;48.830;9.116;2023-05-07T03:31:17;5.73;;;4.43;;
15488;SDS011;7846;48.830;9.116;2023-05-07T03:33:53;4.93;;;4.43;;
15488;SDS011;7846;48.830;9.116;2023-05-07T03:36:19;5.33;;;4.50;;
15488;SDS011;7846;48.830;9.116;2023-05-07T03:38:45;4.63;;;4.23;;
15488;SDS011;7846;48.830;9.116;2023-05-07T03:41:14;5.20;;;4.60;;
15488;SDS011;7846;48.830;9.116;2023-05-07T03:43:39;5.17;;;4.50;;
15488;SDS011;7846;48.830;9.116;2023-05-07T03:46:04;4.90;;;4.50;;
15488;SDS011;7846;48.830;9.116;2023-05-07T03:48:30;5.00;;;4.50;;
15488;SDS011;7846;48.830;9.116;2023-05-07T03:50:59;4.83;;;4.30;;
15488;SDS011;7846;48.830;9.116;2023-05-07T03:53:28;5.33;;;4.37;;
15488;SDS011;7846;48.830;9.116;2023-05-07T03:55:54;8.13;;;4.93;;
15488;SDS011;7846;48.830;9.116;2023-05-07T03:58:19;5.90;;;5.03;;
15488;SDS011;7846;48.830;9.116;2023-05-07T04:00:46;5.03;;;4.53;;
15488;SDS011;7846;48.830;9.116;2023-05-07T04:03:11;5.20;;;4.63;;
15488;SDS011;7846;48.830;9.116;2023-05-07T04:05:36;5.20;;;4.70;;
15488;SDS011;7846;48.830;9.116;2023-05-07T04:08:05;6.20;;;4.67;;
15488;SDS011;7846;48.830;9.116;2023-05-07T04:10:31;4.97;;;4.47;;
15488;SDS011;7846;48.830;9.116;2023-05-07T04:12:56;5.30;;;4.30;;
15488;SDS011;7846;48.830;9.116;2023-05-07T04:15:22;5.47;;;4.20;;
15488;SDS011;7846;48.830;9.116;2023-05-07T04:17:48;4.80;;;4.40;;
15488;SDS011;7846;48.830;9.116;2023-05-07T04:20:15;6.10;;;5.47;;
15488;SDS011;7846;48.830;9.116;2023-05-07T04:22:42;5.50;;;4.80;;
15488;SDS011;7846;48.830;9.116;2023-05-07T04:25:08;5.83;;;4.47;;
15488;SDS011;7846;48.830;9.116;2023-05-07T04:27:36;4.70;;;4.30;;
15488;SDS011;7846;48.830;9.116;2023-05-07T04:30:05;6.13;;;4.50;;
15488;SDS011;7846;48.830;9.116;2023-05-07T04:32:31;4.97;;;4.47;;
15488;SDS011;7846;48.830;9.116;2023-05-07T04:34:56;4.97;;;4.10;;
15488;SDS011;7846;48.830;9.116;2023-05-07T04:37:22;5.87;;;4.07;;
15488;SDS011;7846;48.830;9.116;2023-05-07T04:39:48;5.23;;;4.27;;
15488;SDS011;7846;48.830;9.116;2023-05-07T04:42:14;4.47;;;4.17;;
15488;SDS011;7846;48.830;9.116;2023-05-07T04:44:40;5.90;;;4.50;;
15488;SDS011;7846;48.830;9.116;2023-05-07T04:47:05;4.20;;;3.83;;
15488;SDS011;7846;48.830;9.116;2023-05-07T04:49:31;4.23;;;3.93;;
15488;SDS011;7846;48.830;9.116;2023-05-07T04:51:56;4.60;;;4.20;;
15488;SDS011;7846;48.830;9.116;2023-05-07T04:54:22;4.63;;;4.23;;
15488;SDS011;7846;48.830;9.116;2023-05-07T04:56:48;4.70;;;4.30;;
15488;SDS011;7846;48.830;9.116;2023-05-07T04:59:13;6.10;;;4.20;;
15488;SDS011;7846;48.830;9.116;2023-05-07T05:01:39;4.63;;;4.17;;
15488;SDS011;7846;48.830;9.116;2023-05-07T05:04:06;4.97;;;4.40;;
15488;SDS011;7846;48.830;9.116;2023-05-07T05:06:32;5.10;;;4.60;;
15488;SDS011;7846;48.830;9.116;2023-05-07T05:08:58;6.20;;;4.27;;
15488;SDS011;7846;48.830;9.116;2023-05-07T05:11:23;4.77;;;4.30;;
15488;SDS011;7846;48.830;9.116;2023-05-07T05:13:48;4.50;;;4.10;;
15488;SDS011;7846;48.830;9.116;2023-05-07T05:16:17;4.83;;;4.43;;
15488;SDS011;7846;48.830;9.116;2023-05-07T05:18:42;4.67;;;4.27;;
15488;SDS011;7846;48.830;9.116;2023-05-07T05:21:08;6.47;;;4.30;;
15488;SDS011;7846;48.830;9.116;2023-05-07T05:23:36;4.50;;;4.10;;
15488;SDS011;7846;48.830;9.116;2023-05-07T05:26:02;4.80;;;4.20;;
15488;SDS011;7846;48.830;9.116;2023-05-07T05:28:29;5.60;;;4.20;;
15488;SDS011;7846;48.830;9.116;2023-05-07T05:30:54;4.60;;;4.20;;
15488;SDS011;7846;48.830;9.116;2023-05-07T05:33:21;4.43;;;4.10;;
15488;SDS011;7846;48.830;9.116;2023-05-07T05:35:46;4.20;;;3.80;;
15488;SDS011;7846;48.830;9.116;2023-05-07T05:38:12;6.10;;;4.30;;
15488;SDS011;7846;48.830;9.116;2023-05-07T05:40:37;6.57;;;4.43;;
15488;SDS011;7846;48.830;9.116;2023-05-07T05:43:05;4.87;;;4.00;;
15488;SDS011;7846;48.830;9.116;2023-05-07T05:45:32;5.67;;;4.53;;
15488;SDS011;7846;48.830;9.116;2023-05-07T05:47:57;4.33;;;4.03;;
15488;SDS011;7846;48.830;9.116;2023-05-07T05:50:22;4.40;;;4.03;;
15488;SDS011;7846;48.830;9.116;2023-05-07T05:52:49;5.93;;;4.23;;
15488;SDS011;7846;48.830;9.116;2023-05-07T05:55:14;4.67;;;4.27;;
15488;SDS011;7846;48.830;9.116;2023-05-07T05:57:41;5.07;;;4.57;;
15488;SDS011;7846;48.830;9.116;2023-05-07T06:00:07;4.90;;;4.50;;
15488;SDS011;7846;48.830;9.116;2023-05-07T06:02:33;5.93;;;4.90;;
15488;SDS011;7846;48.830;9.116;2023-05-07T06:05:00;5.00;;;4.50;;
15488;SDS011;7846;48.830;9.116;2023-05-07T06:07:25;5.77;;;4.57;;
15488;SDS011;7846;48.830;9.116;2023-05-07T06:09:51;6.50;;;4.43;;
15488;SDS011;7846;48.830;9.116;2023-05-07T06:12:17;4.60;;;4.20;;
15488;SDS011;7846;48.830;9.116;2023-05-07T06:14:43;4.60;;;4.13;;
15488;SDS011;7846;48.830;9.116;2023-05-07T06:17:08;4.87;;;4.30;;
15488;SDS011;7846;48.830;9.116;2023-05-07T06:19:34;4.53;;;4.13;;
15488;SDS011;7846;48.830;9.116;2023-05-07T06:22:00;6.60;;;4.33;;
15488;SDS011;7846;48.830;9.116;2023-05-07T06:24:27;5.17;;;4.37;;
15488;SDS011;7846;48.830;9.116;2023-05-07T06:26:53;6.50;;;4.80;;
15488;SDS011;7846;48.830;9.116;2023-05-07T06:29:22;9.57;;;4.43;;
15488;SDS011;7846;48.830;9.116;2023-05-07T06:31:47;5.47;;;4.63;;
15488;SDS011;7846;48.830;9.116;2023-05-07T06:34:14;5.23;;;4.73;;
15488;SDS011;7846;48.830;9.116;2023-05-07T06:36:40;5.27;;;4.60;;
15488;SDS011;7846;48.830;9.116;2023-05-07T06:39:05;5.20;;;4.80;;
15488;SDS011;7846;48.830;9.116;2023-05-07T06:41:31;9.07;;;4.10;;
15488;SDS011;7846;48.830;9.116;2023-05-07T06:43:57;5.43;;;4.03;;
15488;SDS011;7846;48.830;9.116;2023-05-07T06:46:23;4.30;;;3.90;;
15488;SDS011;7846;48.830;9.116;2023-05-07T06:48:48;5.00;;;3.80;;
15488;SDS011;7846;48.830;9.116;2023-05-07T06:51:13;4.33;;;4.03;;
15488;SDS011;7846;48.830;9.116;2023-05-07T06:53:42;3.90;;;3.60;;
15488;SDS011;7846;48.830;9.116;2023-05-07T06:56:07;5.40;;;3.63;;
15488;SDS011;7846;48.830;9.116;2023-05-07T06:58:33;4.20;;;3.80;;
15488;SDS011;7846;48.830;9.116;2023-05-07T07:01:00;4.63;;;3.30;;
15488;SDS011;7846;48.830;9.116;2023-05-07T07:03:25;4.53;;;3.10;;
15488;SDS011;7846;48.830;9.116;2023-05-07T07:05:51;3.47;;;3.17;;
15488;SDS011;7846;48.830;9.116;2023-05-07T07:08:18;4.20;;;3.50;;
15488;SDS011;7846;48.830;9.116;2023-05-07T07:10:43;3.90;;;3.10;;
15488;SDS011;7846;48.830;9.116;2023-05-07T07:13:08;3.07;;;2.87;;
15488;SDS011;7846;48.830;9.116;2023-05-07T07:15:34;2.83;;;2.50;;
15488;SDS011;7846;48.830;9.116;2023-05-07T07:18:01;3.10;;;2.80;;
15488;SDS011;7846;48.830;9.116;2023-05-07T07:20:27;3.80;;;2.80;;
15488;SDS011;7846;48.830;9.116;2023-05-07T07:22:53;3.40;;;2.73;;
15488;SDS011;7846;48.830;9.116;2023-05-07T07:25:20;2.60;;;2.40;;
15488;SDS011;7846;48.830;9.116;2023-05-07T07:27:45;2.90;;;2.70;;
15488;SDS011;7846;48.830;9.116;2023-05-07T07:30:11;4.13;;;3.17;;
15488;SDS011;7846;48.830;9.116;2023-05-07T07:32:36;3.97;;;2.50;;
15488;SDS011;7846;48.830;9.116;2023-05-07T07:35:03;2.80;;;2.47;;
15488;SDS011;7846;48.830;9.116;2023-05-07T07:37:29;3.10;;;2.80;;
15488;SDS011;7846;48.830;9.116;2023-05-07T07:39:55;3.47;;;2.43;;
15488;SDS011;7846;48.830;9.116;2023-05-07T07:42:20;3.10;;;2.83;;
15488;SDS011;7846;48.830;9.116;2023-05-07T07:44:48;4.00;;;2.77;;
15488;SDS011;7846;48.830;9.116;2023-05-07T07:47:14;3.03;;;2.73;;
15488;SDS011;7846;48.830;9.116;2023-05-07T07:49:39;2.63;;;2.40;;
15488;SDS011;7846;48.830;9.116;2023-05-07T07:52:05;2.73;;;2.43;;
15488;SDS011;7846;48.830;9.116;2023-05-07T07:54:30;3.10;;;2.80;;
15488;SDS011;7846;48.830;9.116;2023-05-07T07:56:55;2.60;;;2.40;;
15488;SDS011;7846;48.830;9.116;2023-05-07T07:59:21;2.83;;;2.40;;
15488;SDS011;7846;48.830;9.116;2023-05-07T08:01:47;3.83;;;2.60;;
15488;SDS011;7846;48.830;9.116;2023-05-07T08:04:17;3.60;;;2.50;;
15488;SDS011;7846;48.830;9.116;2023-05-07T08:06:42;2.90;;;2.47;;
15488;SDS011;7846;48.830;9.116;2023-05-07T08:09:08;3.03;;;2.70;;
15488;SDS011;7846;48.830;9.116;2023-05-07T08:11:33;3.43;;;2.50;;
15488;SDS011;7846;48.830;9.116;2023-05-07T08:14:00;4.13;;;2.47;;
15488;SDS011;7846;48.830;9.116;2023-05-07T08:16:25;4.37;;;2.47;;
15488;SDS011;7846;48.830;9.116;2023-05-07T08:21:51;2.87;;;2.60;;
15488;SDS011;7846;48.830;9.116;2023-05-07T08:24:16;4.83;;;2.73;;
15488;SDS011;7846;48.830;9.116;2023-05-07T08:26:45;3.00;;;2.70;;
15488;SDS011;7846;48.830;9.116;2023-05-07T08:29:11;3.97;;;3.00;;
15488;SDS011;7846;48.830;9.116;2023-05-07T08:31:36;2.93;;;2.63;;
15488;SDS011;7846;48.830;9.116;2023-05-07T08:34:03;3.10;;;2.80;;
15488;SDS011;7846;48.830;9.116;2023-05-07T08:36:31;3.30;;;3.00;;
15488;SDS011;7846;48.830;9.116;2023-05-07T08:38:57;5.60;;;3.07;;
15488;SDS011;7846;48.830;9.116;2023-05-07T08:41:24;3.07;;;2.83;;
15488;SDS011;7846;48.830;9.116;2023-05-07T08:43:50;3.27;;;3.00;;
15488;SDS011;7846;48.830;9.116;2023-05-07T08:46:20;6.53;;;2.97;;
15488;SDS011;7846;48.830;9.116;2023-05-07T08:48:50;3.00;;;2.67;;
15488;SDS011;7846;48.830;9.116;2023-05-07T08:51:18;3.27;;;2.67;;
15488;SDS011;7846;48.830;9.116;2023-05-07T08:53:45;3.20;;;2.90;;
15488;SDS011;7846;48.830;9.116;2023-05-07T08:56:13;3.10;;;2.80;;
15488;SDS011;7846;48.830;9.116;2023-05-07T08:58:40;4.07;;;2.67;;
15488;SDS011;7846;48.830;9.116;2023-05-07T09:01:09;4.63;;;2.80;;
15488;SDS011;7846;48.830;9.116;2023-05-07T09:03:38;2.97;;;2.77;;
15488;SDS011;7846;48.830;9.116;2023-05-07T09:06:04;3.37;;;2.40;;
15488;SDS011;7846;48.830;9.116;2023-05-07T09:08:31;2.47;;;2.27;;
15488;SDS011;7846;48.830;9.116;2023-05-07T09:10:57;2.53;;;2.33;;
15488;SDS011;7846;48.830;9.116;2023-05-07T09:13:23;2.83;;;2.57;;
15488;SDS011;7846;48.830;9.116;2023-05-07T09:15:48;2.47;;;2.27;;
15488;SDS011;7846;48.830;9.116;2023-05-07T09:18:15;4.40;;;2.47;;
15488;SDS011;7846;48.830;9.116;2023-05-07T09:20:40;2.40;;;2.20;;
15488;SDS011;7846;48.830;9.116;2023-05-07T09:23:25;2.43;;;2.13;;
15488;SDS011;7846;48.830;9.116;2023-05-07T09:25:59;2.73;;;2.20;;
15488;SDS011;7846;48.830;9.116;2023-05-07T09:28:25;4.53;;;2.00;;
15488;SDS011;7846;48.830;9.116;2023-05-07T09:30:50;3.93;;;2.33;;
15488;SDS011;7846;48.830;9.116;2023-05-07T09:33:16;3.27;;;2.00;;
15488;SDS011;7846;48.830;9.116;2023-05-07T09:35:42;2.00;;;1.90;;
15488;SDS011;7846;48.830;9.116;2023-05-07T09:38:07;2.03;;;1.80;;
15488;SDS011;7846;48.830;9.116;2023-05-07T09:40:32;3.80;;;1.93;;
15488;SDS011;7846;48.830;9.116;2023-05-07T09:43:10;2.63;;;2.00;;
15488;SDS011;7846;48.830;9.116;2023-05-07T09:45:36;3.33;;;1.80;;
15488;SDS011;7846;48.830;9.116;2023-05-07T09:48:03;2.10;;;1.80;;
15488;SDS011;7846;48.830;9.116;2023-05-07T09:50:41;3.30;;;2.00;;
15488;SDS011;7846;48.830;9.116;2023-05-07T09:53:14;2.03;;;1.80;;
15488;SDS011;7846;48.830;9.116;2023-05-07T09:55:39;1.80;;;1.70;;
15488;SDS011;7846;48.830;9.116;2023-05-07T09:58:06;2.37;;;1.83;;
15488;SDS011;7846;48.830;9.116;2023-05-07T10:00:32;2.30;;;1.80;;
15488;SDS011;7846;48.830;9.116;2023-05-07T10:03:00;2.10;;;1.90;;
15488;SDS011;7846;48.830;9.116;2023-05-07T10:05:26;1.77;;;1.60;;
15488;SDS011;7846;48.830;9.116;2023-05-07T10:07:52;4.93;;;1.90;;
15488;SDS011;7846;48.830;9.116;2023-05-07T10:10:19;1.83;;;1.70;;
15488;SDS011;7846;48.830;9.116;2023-05-07T10:12:44;2.27;;;2.00;;
15488;SDS011;7846;48.830;9.116;2023-05-07T10:15:14;1.90;;;1.80;;
15488;SDS011;7846;48.830;9.116;2023-05-07T10:17:40;1.80;;;1.70;;
15488;SDS011;7846;48.830;9.116;2023-05-07T10:20:06;1.80;;;1.70;;
15488;SDS011;7846;48.830;9.116;2023-05-07T10:22:38;2.50;;;1.50;;
15488;SDS011;7846;48.830;9.116;2023-05-07T10:25:09;1.90;;;1.60;;
15488;SDS011;7846;48.830;9.116;2023-05-07T10:27:41;2.27;;;1.60;;
15488;SDS011;7846;48.830;9.116;2023-05-07T10:32:55;2.17;;;1.80;;
15488;SDS011;7846;48.830;9.116;2023-05-07T10:35:30;1.90;;;1.80;;
15488;SDS011;7846;48.830;9.116;2023-05-07T10:38:01;1.80;;;1.70;;
15488;SDS011;7846;48.830;9.116;2023-05-07T10:40:27;2.23;;;1.90;;
15488;SDS011;7846;48.830;9.116;2023-05-07T10:42:56;3.70;;;2.03;;
15488;SDS011;7846;48.830;9.116;2023-05-07T10:45:43;2.00;;;1.80;;
15488;SDS011;7846;48.830;9.116;2023-05-07T10:50:35;4.00;;;1.90;;
15488;SDS011;7846;48.830;9.116;2023-05-07T10:56:23;3.27;;;1.80;;
15488;SDS011;7846;48.830;9.116;2023-05-07T10:58:44;2.20;;;1.90;;
15488;SDS011;7846;48.830;9.116;2023-05-07T11:01:10;1.67;;;1.57;;
15488;SDS011;7846;48.830;9.116;2023-05-07T11:03:37;2.50;;;1.60;;
15488;SDS011;7846;48.830;9.116;2023-05-07T11:06:40;3.73;;;1.87;;
15488;SDS011;7846;48.830;9.116;2023-05-07T11:09:05;2.30;;;1.63;;
15488;SDS011;7846;48.830;9.116;2023-05-07T11:11:49;2.17;;;1.93;;
15488;SDS011;7846;48.830;9.116;2023-05-07T11:17:09;2.03;;;1.63;;
15488;SDS011;7846;48.830;9.116;2023-05-07T11:19:54;2.30;;;1.90;;
15488;SDS011;7846;48.830;9.116;2023-05-07T11:25:06;2.20;;;2.00;;
15488;SDS011;7846;48.830;9.116;2023-05-07T11:27:33;2.73;;;2.40;;
15488;SDS011;7846;48.830;9.116;2023-05-07T11:29:59;2.30;;;2.10;;
15488;SDS011;7846;48.830;9.116;2023-05-07T11:32:27;2.70;;;2.20;;
15488;SDS011;7846;48.830;9.116;2023-05-07T11:34:57;3.63;;;2.57;;
15488;SDS011;7846;48.830;9.116;2023-05-07T11:37:24;2.87;;;2.57;;
15488;SDS011;7846;48.830;9.116;2023-05-07T11:40:01;2.93;;;2.73;;
15488;SDS011;7846;48.830;9.116;2023-05-07T11:42:29;3.00;;;2.80;;
15488;SDS011;7846;48.830;9.116;2023-05-07T11:44:59;3.00;;;2.70;;
15488;SDS011;7846;48.830;9.116;2023-05-07T11:47:25;2.50;;;2.40;;
15488;SDS011;7846;48.830;9.116;2023-05-07T11:49:51;3.40;;;2.53;;
15488;SDS011;7846;48.830;9.116;2023-05-07T11:52:19;2.40;;;2.20;;
15488;SDS011;7846;48.830;9.116;2023-05-07T11:54:49;2.33;;;2.17;;
15488;SDS011;7846;48.830;9.116;2023-05-07T11:57:19;2.20;;;2.03;;
15488;SDS011;7846;48.830;9.116;2023-05-07T11:59:45;3.33;;;1.93;;
15488;SDS011;7846;48.830;9.116;2023-05-07T12:02:16;2.10;;;1.90;;
15488;SDS011;7846;48.830;9.116;2023-05-07T12:04:42;2.10;;;1.90;;
15488;SDS011;7846;48.830;9.116;2023-05-07T12:07:11;2.97;;;1.93;;
15488;SDS011;7846;48.830;9.116;2023-05-07T12:09:38;3.27;;;1.90;;
15488;SDS011;7846;48.830;9.116;2023-05-07T12:12:04;4.13;;;2.10;;
15488;SDS011;7846;48.830;9.116;2023-05-07T12:14:29;2.97;;;1.97;;
15488;SDS011;7846;48.830;9.116;2023-05-07T12:16:55;1.80;;;1.70;;
15488;SDS011;7846;48.830;9.116;2023-05-07T12:19:20;2.50;;;2.23;;
15488;SDS011;7846;48.830;9.116;2023-05-07T12:21:47;2.80;;;2.13;;
15488;SDS011;7846;48.830;9.116;2023-05-07T12:24:14;3.77;;;2.43;;
15488;SDS011;7846;48.830;9.116;2023-05-07T12:26:39;3.30;;;2.33;;
15488;SDS011;7846;48.830;9.116;2023-05-07T12:29:05;3.50;;;1.70;;
15488;SDS011;7846;48.830;9.116;2023-05-07T12:31:31;2.20;;;2.00;;
15488;SDS011;7846;48.830;9.116;2023-05-07T12:33:56;2.67;;;1.97;;
15488;SDS011;7846;48.830;9.116;2023-05-07T12:36:22;2.40;;;2.13;;
15488;SDS011;7846;48.830;9.116;2023-05-07T12:38:49;3.50;;;2.60;;
15488;SDS011;7846;48.830;9.116;2023-05-07T12:44:52;4.00;;;2.73;;
15488;SDS011;7846;48.830;9.116;2023-05-07T12:47:17;3.67;;;2.37;;
15488;SDS011;7846;48.830;9.116;2023-05-07T12:49:46;3.83;;;2.50;;
15488;SDS011;7846;48.830;9.116;2023-05-07T12:52:15;2.60;;;2.40;;
15488;SDS011;7846;48.830;9.116;2023-05-07T12:54:40;2.40;;;2.20;;
15488;SDS011;7846;48.830;9.116;2023-05-07T12:57:06;2.17;;;1.97;;
15488;SDS011;7846;48.830;9.116;2023-05-07T12:59:35;2.37;;;1.73;;
15488;SDS011;7846;48.830;9.116;2023-05-07T13:02:02;5.00;;;1.77;;
15488;SDS011;7846;48.830;9.116;2023-05-07T13:04:28;1.53;;;1.43;;
15488;SDS011;7846;48.830;9.116;2023-05-07T13:06:53;1.43;;;1.30;;
15488;SDS011;7846;48.830;9.116;2023-05-07T13:09:18;4.93;;;1.40;;
15488;SDS011;7846;48.830;9.116;2023-05-07T13:11:44;1.83;;;1.40;;
15488;SDS011;7846;48.830;9.116;2023-05-07T13:14:10;2.27;;;1.50;;
15488;SDS011;7846;48.830;9.116;2023-05-07T13:16:36;2.33;;;1.47;;
15488;SDS011;7846;48.830;9.116;2023-05-07T13:19:02;2.73;;;1.47;;
15488;SDS011;7846;48.830;9.116;2023-05-07T13:21:27;2.90;;;1.70;;
15488;SDS011;7846;48.830;9.116;2023-05-07T13:23:54;2.50;;;1.50;;
15488;SDS011;7846;48.830;9.116;2023-05-07T13:26:20;2.93;;;1.30;;
15488;SDS011;7846;48.830;9.116;2023-05-07T13:28:46;1.57;;;1.20;;
15488;SDS011;7846;48.830;9.116;2023-05-07T13:31:12;3.97;;;1.50;;
15488;SDS011;7846;48.830;9.116;2023-05-07T13:33:38;1.63;;;1.53;;
15488;SDS011;7846;48.830;9.116;2023-05-07T13:36:09;1.70;;;1.27;;
15488;SDS011;7846;48.830;9.116;2023-05-07T13:38:36;2.17;;;1.20;;
15488;SDS011;7846;48.830;9.116;2023-05-07T13:41:01;2.23;;;1.30;;
15488;SDS011;7846;48.830;9.116;2023-05-07T13:43:27;1.57;;;1.30;;
15488;SDS011;7846;48.830;9.116;2023-05-07T13:45:54;4.00;;;1.60;;
15488;SDS011;7846;48.830;9.116;2023-05-07T13:48:19;3.30;;;1.73;;
15488;SDS011;7846;48.830;9.116;2023-05-07T13:50:44;2.60;;;1.83;;
15488;SDS011;7846;48.830;9.116;2023-05-07T13:53:11;2.73;;;1.73;;
15488;SDS011;7846;48.830;9.116;2023-05-07T13:55:37;2.50;;;1.63;;
15488;SDS011;7846;48.830;9.116;2023-05-07T13:58:03;3.97;;;1.30;;
15488;SDS011;7846;48.830;9.116;2023-05-07T14:00:29;3.30;;;1.77;;
15488;SDS011;7846;48.830;9.116;2023-05-07T14:02:55;1.80;;;1.20;;
15488;SDS011;7846;48.830;9.116;2023-05-07T14:05:21;3.80;;;1.43;;
15488;SDS011;7846;48.830;9.116;2023-05-07T14:07:48;1.70;;;1.40;;
15488;SDS011;7846;48.830;9.116;2023-05-07T14:10:16;1.43;;;1.20;;
15488;SDS011;7846;48.830;9.116;2023-05-07T14:12:43;1.30;;;1.20;;
15488;SDS011;7846;48.830;9.116;2023-05-07T14:15:12;2.60;;;1.27;;
15488;SDS011;7846;48.830;9.116;2023-05-07T14:17:38;1.33;;;1.23;;
15488;SDS011;7846;48.830;9.116;2023-05-07T14:20:07;1.40;;;1.30;;
15488;SDS011;7846;48.830;9.116;2023-05-07T14:22:33;1.50;;;1.40;;
15488;SDS011;7846;48.830;9.116;2023-05-07T14:24:59;3.07;;;1.70;;
15488;SDS011;7846;48.830;9.116;2023-05-07T14:27:24;1.73;;;1.57;;
15488;SDS011;7846;48.830;9.116;2023-05-07T14:29:51;1.83;;;1.60;;
15488;SDS011;7846;48.830;9.116;2023-05-07T14:32:17;2.07;;;1.77;;
15488;SDS011;7846;48.830;9.116;2023-05-07T14:34:43;1.73;;;1.63;;
15488;SDS011;7846;48.830;9.116;2023-05-07T14:37:08;1.80;;;1.60;;
15488;SDS011;7846;48.830;9.116;2023-05-07T14:39:34;2.33;;;1.67;;
15488;SDS011;7846;48.830;9.116;2023-05-07T14:41:59;1.77;;;1.60;;
15488;SDS011;7846;48.830;9.116;2023-05-07T14:44:25;1.77;;;1.67;;
15488;SDS011;7846;48.830;9.116;2023-05-07T14:46:51;3.33;;;1.60;;
15488;SDS011;7846;48.830;9.116;2023-05-07T14:49:16;1.73;;;1.60;;
15488;SDS011;7846;48.830;9.116;2023-05-07T14:51:44;4.13;;;1.80;;
15488;SDS011;7846;48.830;9.116;2023-05-07T14:54:10;2.40;;;1.60;;
15488;SDS011;7846;48.830;9.116;2023-05-07T14:56:38;1.90;;;1.40;;
15488;SDS011;7846;48.830;9.116;2023-05-07T14:59:08;1.63;;;1.50;;
15488;SDS011;7846;48.830;9.116;2023-05-07T15:01:34;2.83;;;2.00;;
15488;SDS011;7846;48.830;9.116;2023-05-07T15:04:01;3.17;;;1.90;;
15488;SDS011;7846;48.830;9.116;2023-05-07T15:06:27;1.93;;;1.80;;
15488;SDS011;7846;48.830;9.116;2023-05-07T15:08:54;2.80;;;1.77;;
15488;SDS011;7846;48.830;9.116;2023-05-07T15:11:19;3.73;;;1.67;;
15488;SDS011;7846;48.830;9.116;2023-05-07T15:13:45;2.93;;;1.60;;
15488;SDS011;7846;48.830;9.116;2023-05-07T15:16:10;2.37;;;1.90;;
15488;SDS011;7846;48.830;9.116;2023-05-07T15:18:36;2.40;;;1.80;;